sensor_id;sensor_type;location;lat;lon;timestamp;P1;durP1;ratioP1;P2;durP2;ratioP2
34278;SDS011;20538;51.528;9.942;2023-07-13T00:02:10;11.75;;;2.40;;
34278;SDS011;20538;51.528;9.942;2023-07-13T00:04:35;8.32;;;2.20;;
34278;SDS011;20538;51.528;9.942;2023-07-13T00:07:01;4.85;;;2.20;;
34278;SDS011;20538;51.528;9.942;2023-07-13T00:09:27;6.57;;;2.17;;
34278;SDS011;20538;51.528;9.942;2023-07-13T00:11:54;4.75;;;1.80;;
34278;SDS011;20538;51.528;9.942;2023-07-13T00:14:21;8.13;;;2.55;;
34278;SDS011;20538;51.528;9.942;2023-07-13T00:16:48;2.70;;;1.90;;
34278;SDS011;20538;51.528;9.942;2023-07-13T00:19:13;3.88;;;1.73;;
34278;SDS011;20538;51.528;9.942;2023-07-13T00:21:39;9.65;;;2.10;;
34278;SDS011;20538;51.528;9.942;2023-07-13T00:24:06;3.83;;;1.83;;
34278;SDS011;20538;51.528;9.942;2023-07-13T00:26:33;4.93;;;2.00;;
34278;SDS011;20538;51.528;9.942;2023-07-13T00:28:59;5.65;;;2.00;;
34278;SDS011;20538;51.528;9.942;2023-07-13T00:31:25;5.93;;;1.95;;
34278;SDS011;20538;51.528;9.942;2023-07-13T00:33:51;6.10;;;1.67;;
34278;SDS011;20538;51.528;9.942;2023-07-13T00:36:16;6.57;;;2.63;;
34278;SDS011;20538;51.528;9.942;2023-07-13T00:38:42;4.85;;;2.08;;
34278;SDS011;20538;51.528;9.942;2023-07-13T00:41:09;4.38;;;1.73;;
34278;SDS011;20538;51.528;9.942;2023-07-13T00:43:35;3.33;;;1.92;;
34278;SDS011;20538;51.528;9.942;2023-07-13T00:48:27;6.32;;;1.88;;
34278;SDS011;20538;51.528;9.942;2023-07-13T00:50:57;7.88;;;2.10;;
34278;SDS011;20538;51.528;9.942;2023-07-13T00:53:25;5.82;;;2.40;;
34278;SDS011;20538;51.528;9.942;2023-07-13T00:55:53;8.55;;;2.15;;
34278;SDS011;20538;51.528;9.942;2023-07-13T00:58:20;4.78;;;1.67;;
34278;SDS011;20538;51.528;9.942;2023-07-13T01:00:45;6.07;;;2.00;;
34278;SDS011;20538;51.528;9.942;2023-07-13T01:03:13;6.63;;;2.55;;
34278;SDS011;20538;51.528;9.942;2023-07-13T01:05:39;6.93;;;2.40;;
34278;SDS011;20538;51.528;9.942;2023-07-13T01:08:05;3.17;;;1.90;;
34278;SDS011;20538;51.528;9.942;2023-07-13T01:10:31;2.42;;;1.95;;
34278;SDS011;20538;51.528;9.942;2023-07-13T01:13:03;8.88;;;2.70;;
34278;SDS011;20538;51.528;9.942;2023-07-13T01:18:10;4.15;;;1.80;;
34278;SDS011;20538;51.528;9.942;2023-07-13T01:20:49;4.03;;;1.98;;
34278;SDS011;20538;51.528;9.942;2023-07-13T01:23:16;4.43;;;1.92;;
34278;SDS011;20538;51.528;9.942;2023-07-13T01:25:42;5.35;;;2.13;;
34278;SDS011;20538;51.528;9.942;2023-07-13T01:28:08;6.20;;;2.08;;
34278;SDS011;20538;51.528;9.942;2023-07-13T01:30:37;4.57;;;2.10;;
34278;SDS011;20538;51.528;9.942;2023-07-13T01:33:05;4.78;;;2.08;;
34278;SDS011;20538;51.528;9.942;2023-07-13T01:35:32;10.05;;;2.35;;
34278;SDS011;20538;51.528;9.942;2023-07-13T01:37:58;3.30;;;1.85;;
34278;SDS011;20538;51.528;9.942;2023-07-13T01:40:25;4.57;;;2.03;;
34278;SDS011;20538;51.528;9.942;2023-07-13T01:42:51;5.07;;;1.90;;
34278;SDS011;20538;51.528;9.942;2023-07-13T01:45:16;6.50;;;2.40;;
34278;SDS011;20538;51.528;9.942;2023-07-13T01:47:42;4.30;;;2.10;;
34278;SDS011;20538;51.528;9.942;2023-07-13T01:50:08;3.63;;;2.10;;
34278;SDS011;20538;51.528;9.942;2023-07-13T01:52:34;4.60;;;2.50;;
34278;SDS011;20538;51.528;9.942;2023-07-13T01:54:59;5.72;;;2.17;;
34278;SDS011;20538;51.528;9.942;2023-07-13T01:57:25;4.13;;;1.65;;
34278;SDS011;20538;51.528;9.942;2023-07-13T01:59:50;5.95;;;2.50;;
34278;SDS011;20538;51.528;9.942;2023-07-13T02:02:16;6.85;;;2.03;;
34278;SDS011;20538;51.528;9.942;2023-07-13T02:04:42;11.35;;;2.58;;
34278;SDS011;20538;51.528;9.942;2023-07-13T02:07:08;7.28;;;2.22;;
34278;SDS011;20538;51.528;9.942;2023-07-13T02:09:34;7.85;;;2.67;;
34278;SDS011;20538;51.528;9.942;2023-07-13T02:11:59;6.47;;;2.20;;
34278;SDS011;20538;51.528;9.942;2023-07-13T02:14:25;7.22;;;2.03;;
34278;SDS011;20538;51.528;9.942;2023-07-13T02:16:51;7.88;;;2.38;;
34278;SDS011;20538;51.528;9.942;2023-07-13T02:19:16;7.68;;;2.20;;
34278;SDS011;20538;51.528;9.942;2023-07-13T02:21:42;3.65;;;1.95;;
34278;SDS011;20538;51.528;9.942;2023-07-13T02:24:08;5.90;;;2.42;;
34278;SDS011;20538;51.528;9.942;2023-07-13T02:26:34;8.27;;;2.30;;
34278;SDS011;20538;51.528;9.942;2023-07-13T02:29:00;4.85;;;2.20;;
34278;SDS011;20538;51.528;9.942;2023-07-13T02:31:25;8.90;;;2.60;;
34278;SDS011;20538;51.528;9.942;2023-07-13T02:33:51;2.72;;;2.08;;
34278;SDS011;20538;51.528;9.942;2023-07-13T02:36:17;12.00;;;2.25;;
34278;SDS011;20538;51.528;9.942;2023-07-13T02:38:43;8.63;;;2.47;;
34278;SDS011;20538;51.528;9.942;2023-07-13T02:41:09;4.63;;;2.13;;
34278;SDS011;20538;51.528;9.942;2023-07-13T02:43:36;6.60;;;2.10;;
34278;SDS011;20538;51.528;9.942;2023-07-13T02:46:02;4.95;;;2.13;;
34278;SDS011;20538;51.528;9.942;2023-07-13T02:48:34;6.35;;;2.47;;
34278;SDS011;20538;51.528;9.942;2023-07-13T02:51:01;5.88;;;2.60;;
34278;SDS011;20538;51.528;9.942;2023-07-13T02:53:27;10.02;;;2.25;;
34278;SDS011;20538;51.528;9.942;2023-07-13T02:55:52;5.75;;;2.50;;
34278;SDS011;20538;51.528;9.942;2023-07-13T02:58:18;3.72;;;1.98;;
34278;SDS011;20538;51.528;9.942;2023-07-13T03:00:44;6.97;;;2.60;;
34278;SDS011;20538;51.528;9.942;2023-07-13T03:03:11;8.68;;;2.40;;
34278;SDS011;20538;51.528;9.942;2023-07-13T03:05:40;9.57;;;2.45;;
34278;SDS011;20538;51.528;9.942;2023-07-13T03:08:08;4.43;;;2.25;;
34278;SDS011;20538;51.528;9.942;2023-07-13T03:10:34;4.97;;;2.30;;
34278;SDS011;20538;51.528;9.942;2023-07-13T03:13:00;5.75;;;2.50;;
34278;SDS011;20538;51.528;9.942;2023-07-13T03:15:26;6.90;;;2.97;;
34278;SDS011;20538;51.528;9.942;2023-07-13T03:17:52;6.82;;;2.58;;
34278;SDS011;20538;51.528;9.942;2023-07-13T03:20:18;4.60;;;2.65;;
34278;SDS011;20538;51.528;9.942;2023-07-13T03:22:44;11.68;;;3.08;;
34278;SDS011;20538;51.528;9.942;2023-07-13T03:25:10;6.15;;;2.53;;
34278;SDS011;20538;51.528;9.942;2023-07-13T03:27:36;5.15;;;2.55;;
34278;SDS011;20538;51.528;9.942;2023-07-13T03:30:02;6.50;;;3.00;;
34278;SDS011;20538;51.528;9.942;2023-07-13T03:32:29;5.60;;;2.60;;
34278;SDS011;20538;51.528;9.942;2023-07-13T03:34:54;4.47;;;2.80;;
34278;SDS011;20538;51.528;9.942;2023-07-13T03:37:20;9.02;;;2.72;;
34278;SDS011;20538;51.528;9.942;2023-07-13T03:39:46;10.00;;;3.03;;
34278;SDS011;20538;51.528;9.942;2023-07-13T03:42:11;7.57;;;2.60;;
34278;SDS011;20538;51.528;9.942;2023-07-13T03:44:38;7.28;;;2.80;;
34278;SDS011;20538;51.528;9.942;2023-07-13T03:47:05;6.05;;;2.45;;
34278;SDS011;20538;51.528;9.942;2023-07-13T03:49:33;6.57;;;3.00;;
34278;SDS011;20538;51.528;9.942;2023-07-13T03:51:59;8.10;;;2.63;;
34278;SDS011;20538;51.528;9.942;2023-07-13T03:54:25;6.97;;;2.70;;
34278;SDS011;20538;51.528;9.942;2023-07-13T03:56:50;5.65;;;2.70;;
34278;SDS011;20538;51.528;9.942;2023-07-13T03:59:17;7.20;;;2.85;;
34278;SDS011;20538;51.528;9.942;2023-07-13T04:01:46;5.70;;;2.80;;
34278;SDS011;20538;51.528;9.942;2023-07-13T04:04:17;7.03;;;2.58;;
34278;SDS011;20538;51.528;9.942;2023-07-13T04:06:46;6.32;;;2.80;;
34278;SDS011;20538;51.528;9.942;2023-07-13T04:09:13;5.82;;;2.70;;
34278;SDS011;20538;51.528;9.942;2023-07-13T04:11:40;5.82;;;3.00;;
34278;SDS011;20538;51.528;9.942;2023-07-13T04:14:06;11.48;;;3.50;;
34278;SDS011;20538;51.528;9.942;2023-07-13T04:16:34;5.03;;;2.78;;
34278;SDS011;20538;51.528;9.942;2023-07-13T04:19:01;6.97;;;2.95;;
34278;SDS011;20538;51.528;9.942;2023-07-13T04:21:30;12.73;;;3.33;;
34278;SDS011;20538;51.528;9.942;2023-07-13T04:23:57;8.32;;;2.78;;
34278;SDS011;20538;51.528;9.942;2023-07-13T04:26:23;8.40;;;3.85;;
34278;SDS011;20538;51.528;9.942;2023-07-13T04:28:54;9.80;;;2.80;;
34278;SDS011;20538;51.528;9.942;2023-07-13T04:31:28;11.52;;;2.67;;
34278;SDS011;20538;51.528;9.942;2023-07-13T04:33:56;6.13;;;2.42;;
34278;SDS011;20538;51.528;9.942;2023-07-13T04:36:24;8.70;;;2.92;;
34278;SDS011;20538;51.528;9.942;2023-07-13T04:38:52;5.07;;;2.53;;
34278;SDS011;20538;51.528;9.942;2023-07-13T04:41:22;5.57;;;2.60;;
34278;SDS011;20538;51.528;9.942;2023-07-13T04:43:51;12.00;;;3.42;;
34278;SDS011;20538;51.528;9.942;2023-07-13T04:46:37;9.07;;;2.10;;
34278;SDS011;20538;51.528;9.942;2023-07-13T04:49:13;8.70;;;2.17;;
34278;SDS011;20538;51.528;9.942;2023-07-13T04:51:39;7.38;;;2.47;;
34278;SDS011;20538;51.528;9.942;2023-07-13T04:54:05;6.07;;;1.95;;
34278;SDS011;20538;51.528;9.942;2023-07-13T04:56:34;8.65;;;2.95;;
34278;SDS011;20538;51.528;9.942;2023-07-13T04:59:22;4.45;;;2.00;;
34278;SDS011;20538;51.528;9.942;2023-07-13T05:01:53;4.80;;;2.00;;
34278;SDS011;20538;51.528;9.942;2023-07-13T05:04:25;6.65;;;2.50;;
34278;SDS011;20538;51.528;9.942;2023-07-13T05:07:25;5.18;;;1.83;;
34278;SDS011;20538;51.528;9.942;2023-07-13T05:09:53;7.55;;;2.35;;
34278;SDS011;20538;51.528;9.942;2023-07-13T05:12:21;4.88;;;2.20;;
34278;SDS011;20538;51.528;9.942;2023-07-13T05:14:47;6.60;;;2.22;;
34278;SDS011;20538;51.528;9.942;2023-07-13T05:17:14;5.15;;;1.95;;
34278;SDS011;20538;51.528;9.942;2023-07-13T05:19:42;5.40;;;1.80;;
34278;SDS011;20538;51.528;9.942;2023-07-13T05:22:09;6.90;;;1.83;;
34278;SDS011;20538;51.528;9.942;2023-07-13T05:24:35;4.43;;;1.98;;
34278;SDS011;20538;51.528;9.942;2023-07-13T05:27:05;5.82;;;1.75;;
34278;SDS011;20538;51.528;9.942;2023-07-13T05:29:34;4.68;;;1.80;;
34278;SDS011;20538;51.528;9.942;2023-07-13T05:32:19;6.97;;;1.80;;
34278;SDS011;20538;51.528;9.942;2023-07-13T05:34:47;3.95;;;1.73;;
34278;SDS011;20538;51.528;9.942;2023-07-13T05:37:13;6.88;;;1.77;;
34278;SDS011;20538;51.528;9.942;2023-07-13T05:39:39;4.28;;;1.58;;
34278;SDS011;20538;51.528;9.942;2023-07-13T05:42:05;4.60;;;1.80;;
34278;SDS011;20538;51.528;9.942;2023-07-13T05:44:31;4.50;;;1.40;;
34278;SDS011;20538;51.528;9.942;2023-07-13T05:46:56;4.60;;;1.83;;
34278;SDS011;20538;51.528;9.942;2023-07-13T05:49:22;4.60;;;1.75;;
34278;SDS011;20538;51.528;9.942;2023-07-13T05:51:48;10.00;;;2.00;;
34278;SDS011;20538;51.528;9.942;2023-07-13T05:54:14;10.10;;;1.60;;
34278;SDS011;20538;51.528;9.942;2023-07-13T05:56:40;8.82;;;2.05;;
34278;SDS011;20538;51.528;9.942;2023-07-13T05:59:05;4.53;;;1.60;;
34278;SDS011;20538;51.528;9.942;2023-07-13T06:01:31;9.35;;;1.70;;
34278;SDS011;20538;51.528;9.942;2023-07-13T06:03:57;6.82;;;1.95;;
34278;SDS011;20538;51.528;9.942;2023-07-13T06:06:23;4.32;;;1.50;;
34278;SDS011;20538;51.528;9.942;2023-07-13T06:08:48;4.38;;;1.30;;
34278;SDS011;20538;51.528;9.942;2023-07-13T06:11:15;3.72;;;1.10;;
34278;SDS011;20538;51.528;9.942;2023-07-13T06:13:43;4.22;;;1.33;;
34278;SDS011;20538;51.528;9.942;2023-07-13T06:16:09;6.32;;;1.50;;
34278;SDS011;20538;51.528;9.942;2023-07-13T06:18:36;4.32;;;1.00;;
34278;SDS011;20538;51.528;9.942;2023-07-13T06:21:07;6.05;;;1.52;;
34278;SDS011;20538;51.528;9.942;2023-07-13T06:23:34;5.63;;;1.52;;
34278;SDS011;20538;51.528;9.942;2023-07-13T06:26:00;8.23;;;1.65;;
34278;SDS011;20538;51.528;9.942;2023-07-13T06:28:25;5.25;;;1.40;;
34278;SDS011;20538;51.528;9.942;2023-07-13T06:30:51;7.68;;;1.60;;
34278;SDS011;20538;51.528;9.942;2023-07-13T06:33:16;7.03;;;1.45;;
34278;SDS011;20538;51.528;9.942;2023-07-13T06:35:43;4.70;;;1.45;;
34278;SDS011;20538;51.528;9.942;2023-07-13T06:38:09;5.68;;;1.55;;
34278;SDS011;20538;51.528;9.942;2023-07-13T06:40:34;8.63;;;2.63;;
34278;SDS011;20538;51.528;9.942;2023-07-13T06:43:00;9.80;;;1.95;;
34278;SDS011;20538;51.528;9.942;2023-07-13T06:45:25;7.90;;;1.73;;
34278;SDS011;20538;51.528;9.942;2023-07-13T06:47:51;6.88;;;1.92;;
34278;SDS011;20538;51.528;9.942;2023-07-13T06:50:17;4.68;;;1.70;;
34278;SDS011;20538;51.528;9.942;2023-07-13T06:52:42;7.95;;;1.83;;
34278;SDS011;20538;51.528;9.942;2023-07-13T06:55:08;6.20;;;1.38;;
34278;SDS011;20538;51.528;9.942;2023-07-13T06:57:34;7.53;;;1.67;;
34278;SDS011;20538;51.528;9.942;2023-07-13T06:59:59;5.85;;;1.73;;
34278;SDS011;20538;51.528;9.942;2023-07-13T07:02:25;4.90;;;1.58;;
34278;SDS011;20538;51.528;9.942;2023-07-13T07:04:51;4.95;;;1.58;;
34278;SDS011;20538;51.528;9.942;2023-07-13T07:07:16;7.07;;;1.80;;
34278;SDS011;20538;51.528;9.942;2023-07-13T07:09:42;3.97;;;1.38;;
34278;SDS011;20538;51.528;9.942;2023-07-13T07:12:08;3.60;;;1.42;;
34278;SDS011;20538;51.528;9.942;2023-07-13T07:14:33;4.22;;;1.38;;
34278;SDS011;20538;51.528;9.942;2023-07-13T07:16:59;4.78;;;1.38;;
34278;SDS011;20538;51.528;9.942;2023-07-13T07:19:25;6.25;;;1.42;;
34278;SDS011;20538;51.528;9.942;2023-07-13T07:21:51;6.38;;;1.52;;
34278;SDS011;20538;51.528;9.942;2023-07-13T07:24:16;5.68;;;1.23;;
34278;SDS011;20538;51.528;9.942;2023-07-13T07:26:42;5.95;;;1.40;;
34278;SDS011;20538;51.528;9.942;2023-07-13T07:29:08;4.68;;;1.50;;
34278;SDS011;20538;51.528;9.942;2023-07-13T07:31:33;6.93;;;1.70;;
34278;SDS011;20538;51.528;9.942;2023-07-13T07:33:59;3.83;;;1.05;;
34278;SDS011;20538;51.528;9.942;2023-07-13T07:36:25;4.22;;;1.33;;
34278;SDS011;20538;51.528;9.942;2023-07-13T07:38:50;8.70;;;1.45;;
34278;SDS011;20538;51.528;9.942;2023-07-13T07:41:16;5.18;;;1.52;;
34278;SDS011;20538;51.528;9.942;2023-07-13T07:43:42;6.30;;;1.20;;
34278;SDS011;20538;51.528;9.942;2023-07-13T07:46:07;3.15;;;1.30;;
34278;SDS011;20538;51.528;9.942;2023-07-13T07:48:33;6.57;;;1.38;;
34278;SDS011;20538;51.528;9.942;2023-07-13T07:50:59;3.22;;;2.08;;
34278;SDS011;20538;51.528;9.942;2023-07-13T07:53:24;4.18;;;1.42;;
34278;SDS011;20538;51.528;9.942;2023-07-13T07:55:50;5.43;;;1.55;;
34278;SDS011;20538;51.528;9.942;2023-07-13T07:58:16;2.60;;;1.20;;
34278;SDS011;20538;51.528;9.942;2023-07-13T08:00:42;8.05;;;1.55;;
34278;SDS011;20538;51.528;9.942;2023-07-13T08:03:07;7.55;;;1.52;;
34278;SDS011;20538;51.528;9.942;2023-07-13T08:05:35;2.90;;;1.40;;
34278;SDS011;20538;51.528;9.942;2023-07-13T08:08:01;3.28;;;1.38;;
34278;SDS011;20538;51.528;9.942;2023-07-13T08:10:27;6.72;;;1.35;;
34278;SDS011;20538;51.528;9.942;2023-07-13T08:12:53;5.75;;;1.52;;
34278;SDS011;20538;51.528;9.942;2023-07-13T08:15:18;3.90;;;1.52;;
34278;SDS011;20538;51.528;9.942;2023-07-13T08:17:45;6.05;;;1.55;;
34278;SDS011;20538;51.528;9.942;2023-07-13T08:20:12;6.95;;;1.30;;
34278;SDS011;20538;51.528;9.942;2023-07-13T08:22:39;4.63;;;1.13;;
34278;SDS011;20538;51.528;9.942;2023-07-13T08:25:04;5.30;;;1.30;;
34278;SDS011;20538;51.528;9.942;2023-07-13T08:27:30;4.85;;;1.65;;
34278;SDS011;20538;51.528;9.942;2023-07-13T08:29:56;4.95;;;1.65;;
34278;SDS011;20538;51.528;9.942;2023-07-13T08:32:22;7.57;;;1.30;;
34278;SDS011;20538;51.528;9.942;2023-07-13T08:34:48;4.40;;;1.05;;
34278;SDS011;20538;51.528;9.942;2023-07-13T08:37:15;4.63;;;1.20;;
34278;SDS011;20538;51.528;9.942;2023-07-13T08:39:42;2.60;;;1.38;;
34278;SDS011;20538;51.528;9.942;2023-07-13T08:42:27;4.28;;;1.10;;
34278;SDS011;20538;51.528;9.942;2023-07-13T08:47:46;4.40;;;1.50;;
34278;SDS011;20538;51.528;9.942;2023-07-13T08:50:19;4.55;;;1.30;;
34278;SDS011;20538;51.528;9.942;2023-07-13T08:52:51;3.42;;;1.05;;
34278;SDS011;20538;51.528;9.942;2023-07-13T08:55:27;3.50;;;1.10;;
34278;SDS011;20538;51.528;9.942;2023-07-13T08:57:59;3.28;;;1.30;;
34278;SDS011;20538;51.528;9.942;2023-07-13T09:00:37;4.03;;;1.30;;
34278;SDS011;20538;51.528;9.942;2023-07-13T09:03:07;3.22;;;1.27;;
34278;SDS011;20538;51.528;9.942;2023-07-13T09:05:45;4.22;;;1.33;;
34278;SDS011;20538;51.528;9.942;2023-07-13T09:08:36;6.90;;;1.67;;
34278;SDS011;20538;51.528;9.942;2023-07-13T09:16:53;3.38;;;1.20;;
34278;SDS011;20538;51.528;9.942;2023-07-13T09:19:24;6.07;;;1.30;;
34278;SDS011;20538;51.528;9.942;2023-07-13T09:21:55;4.70;;;1.40;;
34278;SDS011;20538;51.528;9.942;2023-07-13T09:26:59;4.95;;;1.38;;
34278;SDS011;20538;51.528;9.942;2023-07-13T09:29:34;11.05;;;1.58;;
34278;SDS011;20538;51.528;9.942;2023-07-13T09:32:01;3.08;;;1.30;;
34278;SDS011;20538;51.528;9.942;2023-07-13T09:34:29;3.97;;;1.13;;
34278;SDS011;20538;51.528;9.942;2023-07-13T09:36:57;4.15;;;1.10;;
34278;SDS011;20538;51.528;9.942;2023-07-13T09:41:59;3.25;;;1.15;;
34278;SDS011;20538;51.528;9.942;2023-07-13T09:44:37;3.38;;;1.30;;
34278;SDS011;20538;51.528;9.942;2023-07-13T09:47:12;3.10;;;1.05;;
34278;SDS011;20538;51.528;9.942;2023-07-13T09:49:41;4.55;;;1.20;;
34278;SDS011;20538;51.528;9.942;2023-07-13T09:52:10;3.17;;;1.27;;
34278;SDS011;20538;51.528;9.942;2023-07-13T09:54:39;3.05;;;1.00;;
34278;SDS011;20538;51.528;9.942;2023-07-13T09:57:12;7.65;;;1.50;;
34278;SDS011;20538;51.528;9.942;2023-07-13T10:04:46;3.63;;;1.20;;
34278;SDS011;20538;51.528;9.942;2023-07-13T10:07:22;3.75;;;0.88;;
34278;SDS011;20538;51.528;9.942;2023-07-13T10:09:51;2.05;;;1.08;;
34278;SDS011;20538;51.528;9.942;2023-07-13T10:12:19;4.38;;;0.90;;
34278;SDS011;20538;51.528;9.942;2023-07-13T10:14:44;5.32;;;1.30;;
34278;SDS011;20538;51.528;9.942;2023-07-13T10:17:11;5.20;;;1.58;;
34278;SDS011;20538;51.528;9.942;2023-07-13T10:19:39;4.65;;;1.10;;
34278;SDS011;20538;51.528;9.942;2023-07-13T10:22:23;3.58;;;1.20;;
34278;SDS011;20538;51.528;9.942;2023-07-13T10:24:55;4.15;;;1.20;;
34278;SDS011;20538;51.528;9.942;2023-07-13T10:27:23;3.47;;;1.10;;
34278;SDS011;20538;51.528;9.942;2023-07-13T10:30:06;6.80;;;1.38;;
34278;SDS011;20538;51.528;9.942;2023-07-13T10:32:39;6.18;;;1.33;;
34278;SDS011;20538;51.528;9.942;2023-07-13T10:35:05;6.43;;;1.40;;
34278;SDS011;20538;51.528;9.942;2023-07-13T10:37:45;2.95;;;1.10;;
34278;SDS011;20538;51.528;9.942;2023-07-13T10:40:29;8.10;;;1.27;;
34278;SDS011;20538;51.528;9.942;2023-07-13T10:42:59;6.13;;;1.38;;
34278;SDS011;20538;51.528;9.942;2023-07-13T10:45:27;4.65;;;1.20;;
34278;SDS011;20538;51.528;9.942;2023-07-13T10:47:55;6.30;;;1.88;;
34278;SDS011;20538;51.528;9.942;2023-07-13T10:50:22;3.63;;;1.20;;
34278;SDS011;20538;51.528;9.942;2023-07-13T10:58:24;3.92;;;1.40;;
34278;SDS011;20538;51.528;9.942;2023-07-13T11:03:31;1.85;;;1.10;;
34278;SDS011;20538;51.528;9.942;2023-07-13T11:09:03;4.53;;;1.58;;
34278;SDS011;20538;51.528;9.942;2023-07-13T11:11:59;5.18;;;1.42;;
34278;SDS011;20538;51.528;9.942;2023-07-13T11:22:49;2.83;;;1.00;;
34278;SDS011;20538;51.528;9.942;2023-07-13T11:25:33;4.88;;;1.20;;
34278;SDS011;20538;51.528;9.942;2023-07-13T11:36:22;3.58;;;1.10;;
34278;SDS011;20538;51.528;9.942;2023-07-13T11:38:39;3.00;;;1.00;;
34278;SDS011;20538;51.528;9.942;2023-07-13T11:43:49;5.10;;;1.33;;
34278;SDS011;20538;51.528;9.942;2023-07-13T11:46:23;2.47;;;1.30;;
34278;SDS011;20538;51.528;9.942;2023-07-13T11:48:51;2.92;;;1.45;;
34278;SDS011;20538;51.528;9.942;2023-07-13T11:51:25;3.15;;;1.20;;
34278;SDS011;20538;51.528;9.942;2023-07-13T11:53:54;8.15;;;1.58;;
34278;SDS011;20538;51.528;9.942;2023-07-13T11:56:22;2.67;;;1.48;;
34278;SDS011;20538;51.528;9.942;2023-07-13T11:58:52;3.22;;;1.20;;
34278;SDS011;20538;51.528;9.942;2023-07-13T12:01:21;4.55;;;1.20;;
34278;SDS011;20538;51.528;9.942;2023-07-13T12:03:49;4.10;;;1.42;;
34278;SDS011;20538;51.528;9.942;2023-07-13T12:06:26;4.53;;;1.10;;
34278;SDS011;20538;51.528;9.942;2023-07-13T12:09:00;5.55;;;1.17;;
34278;SDS011;20538;51.528;9.942;2023-07-13T12:11:29;3.92;;;1.55;;
34278;SDS011;20538;51.528;9.942;2023-07-13T12:13:55;6.72;;;1.23;;
34278;SDS011;20538;51.528;9.942;2023-07-13T12:18:58;3.60;;;1.20;;
34278;SDS011;20538;51.528;9.942;2023-07-13T12:21:37;6.28;;;1.23;;
34278;SDS011;20538;51.528;9.942;2023-07-13T12:24:04;4.15;;;1.30;;
34278;SDS011;20538;51.528;9.942;2023-07-13T12:26:38;5.68;;;1.33;;
34278;SDS011;20538;51.528;9.942;2023-07-13T12:29:04;5.05;;;1.27;;
34278;SDS011;20538;51.528;9.942;2023-07-13T12:31:33;4.47;;;1.20;;
34278;SDS011;20538;51.528;9.942;2023-07-13T12:34:09;2.28;;;1.08;;
34278;SDS011;20538;51.528;9.942;2023-07-13T12:37:00;5.00;;;1.27;;
34278;SDS011;20538;51.528;9.942;2023-07-13T12:39:35;3.83;;;1.15;;
34278;SDS011;20538;51.528;9.942;2023-07-13T12:44:56;4.65;;;1.40;;
34278;SDS011;20538;51.528;9.942;2023-07-13T12:47:23;5.85;;;1.73;;
34278;SDS011;20538;51.528;9.942;2023-07-13T12:49:53;3.42;;;1.50;;
34278;SDS011;20538;51.528;9.942;2023-07-13T12:52:27;4.75;;;1.40;;
34278;SDS011;20538;51.528;9.942;2023-07-13T12:54:56;4.07;;;1.52;;
34278;SDS011;20538;51.528;9.942;2023-07-13T12:57:23;2.80;;;1.15;;
34278;SDS011;20538;51.528;9.942;2023-07-13T12:59:53;5.60;;;1.88;;
34278;SDS011;20538;51.528;9.942;2023-07-13T13:04:54;4.95;;;1.45;;
34278;SDS011;20538;51.528;9.942;2023-07-13T13:07:21;3.78;;;1.38;;
34278;SDS011;20538;51.528;9.942;2023-07-13T13:09:46;3.90;;;1.50;;
34278;SDS011;20538;51.528;9.942;2023-07-13T13:12:12;5.20;;;1.40;;
34278;SDS011;20538;51.528;9.942;2023-07-13T13:14:38;3.00;;;1.27;;
34278;SDS011;20538;51.528;9.942;2023-07-13T13:17:04;3.97;;;1.35;;
34278;SDS011;20538;51.528;9.942;2023-07-13T13:19:49;6.22;;;1.40;;
34278;SDS011;20538;51.528;9.942;2023-07-13T13:22:15;4.97;;;1.60;;
34278;SDS011;20538;51.528;9.942;2023-07-13T13:24:40;4.60;;;1.65;;
34278;SDS011;20538;51.528;9.942;2023-07-13T13:27:09;5.28;;;1.35;;
34278;SDS011;20538;51.528;9.942;2023-07-13T13:29:44;2.30;;;1.30;;
34278;SDS011;20538;51.528;9.942;2023-07-13T13:32:14;5.68;;;1.60;;
34278;SDS011;20538;51.528;9.942;2023-07-13T13:34:40;2.35;;;1.23;;
34278;SDS011;20538;51.528;9.942;2023-07-13T13:37:16;4.45;;;1.52;;
34278;SDS011;20538;51.528;9.942;2023-07-13T13:39:50;5.22;;;1.40;;
34278;SDS011;20538;51.528;9.942;2023-07-13T13:42:17;3.10;;;1.50;;
34278;SDS011;20538;51.528;9.942;2023-07-13T13:44:42;6.05;;;1.50;;
34278;SDS011;20538;51.528;9.942;2023-07-13T13:47:20;4.28;;;1.50;;
34278;SDS011;20538;51.528;9.942;2023-07-13T13:49:52;3.58;;;1.20;;
34278;SDS011;20538;51.528;9.942;2023-07-13T13:52:18;3.83;;;1.48;;
34278;SDS011;20538;51.528;9.942;2023-07-13T13:54:44;7.13;;;1.80;;
34278;SDS011;20538;51.528;9.942;2023-07-13T13:57:09;4.82;;;1.88;;
34278;SDS011;20538;51.528;9.942;2023-07-13T13:59:37;4.30;;;1.73;;
34278;SDS011;20538;51.528;9.942;2023-07-13T14:02:10;2.80;;;1.55;;
34278;SDS011;20538;51.528;9.942;2023-07-13T14:05:01;4.35;;;1.70;;
34278;SDS011;20538;51.528;9.942;2023-07-13T14:07:28;5.43;;;1.55;;
34278;SDS011;20538;51.528;9.942;2023-07-13T14:09:58;5.88;;;1.60;;
34278;SDS011;20538;51.528;9.942;2023-07-13T14:12:25;2.95;;;1.50;;
34278;SDS011;20538;51.528;9.942;2023-07-13T14:14:53;6.20;;;1.60;;
34278;SDS011;20538;51.528;9.942;2023-07-13T14:17:20;3.38;;;1.40;;
34278;SDS011;20538;51.528;9.942;2023-07-13T14:19:49;6.35;;;2.03;;
34278;SDS011;20538;51.528;9.942;2023-07-13T14:22:16;5.53;;;1.80;;
34278;SDS011;20538;51.528;9.942;2023-07-13T14:24:43;4.93;;;1.95;;
34278;SDS011;20538;51.528;9.942;2023-07-13T14:27:12;2.28;;;1.38;;
34278;SDS011;20538;51.528;9.942;2023-07-13T14:29:38;3.03;;;1.52;;
34278;SDS011;20538;51.528;9.942;2023-07-13T14:32:05;3.58;;;1.75;;
34278;SDS011;20538;51.528;9.942;2023-07-13T14:34:33;2.88;;;1.70;;
34278;SDS011;20538;51.528;9.942;2023-07-13T14:37:02;6.45;;;1.80;;
34278;SDS011;20538;51.528;9.942;2023-07-13T14:39:29;3.58;;;1.70;;
34278;SDS011;20538;51.528;9.942;2023-07-13T14:41:57;3.75;;;1.55;;
34278;SDS011;20538;51.528;9.942;2023-07-13T14:44:24;5.00;;;1.83;;
34278;SDS011;20538;51.528;9.942;2023-07-13T14:46:56;3.53;;;1.58;;
34278;SDS011;20538;51.528;9.942;2023-07-13T14:49:31;5.45;;;1.92;;
34278;SDS011;20538;51.528;9.942;2023-07-13T14:52:14;4.68;;;1.80;;
34278;SDS011;20538;51.528;9.942;2023-07-13T14:54:48;6.35;;;1.85;;
34278;SDS011;20538;51.528;9.942;2023-07-13T14:57:58;4.18;;;1.42;;
34278;SDS011;20538;51.528;9.942;2023-07-13T15:00:24;2.83;;;1.73;;
34278;SDS011;20538;51.528;9.942;2023-07-13T15:02:52;3.53;;;1.80;;
34278;SDS011;20538;51.528;9.942;2023-07-13T15:05:21;3.35;;;1.50;;
34278;SDS011;20538;51.528;9.942;2023-07-13T15:07:50;2.97;;;1.70;;
34278;SDS011;20538;51.528;9.942;2023-07-13T15:10:30;4.55;;;1.60;;
34278;SDS011;20538;51.528;9.942;2023-07-13T15:13:38;3.67;;;1.27;;
34278;SDS011;20538;51.528;9.942;2023-07-13T15:16:09;5.38;;;1.50;;
34278;SDS011;20538;51.528;9.942;2023-07-13T15:18:43;3.13;;;1.63;;
34278;SDS011;20538;51.528;9.942;2023-07-13T15:21:14;5.85;;;2.05;;
34278;SDS011;20538;51.528;9.942;2023-07-13T15:23:47;3.40;;;1.48;;
34278;SDS011;20538;51.528;9.942;2023-07-13T15:26:14;6.53;;;1.85;;
34278;SDS011;20538;51.528;9.942;2023-07-13T15:28:41;6.53;;;2.30;;
34278;SDS011;20538;51.528;9.942;2023-07-13T15:31:25;8.07;;;1.83;;
34278;SDS011;20538;51.528;9.942;2023-07-13T15:33:55;3.20;;;1.58;;
34278;SDS011;20538;51.528;9.942;2023-07-13T15:36:22;4.93;;;1.50;;
34278;SDS011;20538;51.528;9.942;2023-07-13T15:38:51;4.32;;;1.45;;
34278;SDS011;20538;51.528;9.942;2023-07-13T15:41:20;3.67;;;2.05;;
34278;SDS011;20538;51.528;9.942;2023-07-13T15:43:55;3.22;;;1.80;;
34278;SDS011;20538;51.528;9.942;2023-07-13T15:46:27;3.70;;;1.70;;
34278;SDS011;20538;51.528;9.942;2023-07-13T15:49:13;2.72;;;1.55;;
34278;SDS011;20538;51.528;9.942;2023-07-13T15:51:39;3.20;;;1.80;;
34278;SDS011;20538;51.528;9.942;2023-07-13T15:54:05;4.60;;;2.00;;
34278;SDS011;20538;51.528;9.942;2023-07-13T15:56:32;5.28;;;1.80;;
34278;SDS011;20538;51.528;9.942;2023-07-13T15:59:07;6.03;;;1.80;;
34278;SDS011;20538;51.528;9.942;2023-07-13T16:01:36;6.25;;;1.90;;